sensor_id;sensor_type;location;lat;lon;timestamp;temperature;humidity
3994;DHT22;2011;48.238;13.948;2023-05-10T00:01:21;13.50;79.10
3994;DHT22;2011;48.238;13.948;2023-05-10T00:03:48;13.50;79.30
3994;DHT22;2011;48.238;13.948;2023-05-10T00:06:15;13.50;79.30
3994;DHT22;2011;48.238;13.948;2023-05-10T00:08:44;13.50;79.20
3994;DHT22;2011;48.238;13.948;2023-05-10T00:11:11;13.50;79.20
3994;DHT22;2011;48.238;13.948;2023-05-10T00:13:37;13.50;79.10
3994;DHT22;2011;48.238;13.948;2023-05-10T00:16:05;13.50;79.20
3994;DHT22;2011;48.238;13.948;2023-05-10T00:18:32;13.40;79.90
3994;DHT22;2011;48.238;13.948;2023-05-10T00:20:59;13.40;79.30
3994;DHT22;2011;48.238;13.948;2023-05-10T00:23:25;13.40;79.30
3994;DHT22;2011;48.238;13.948;2023-05-10T00:25:54;13.40;79.20
3994;DHT22;2011;48.238;13.948;2023-05-10T00:28:21;13.40;79.30
3994;DHT22;2011;48.238;13.948;2023-05-10T00:30:47;13.40;79.30
3994;DHT22;2011;48.238;13.948;2023-05-10T00:33:14;13.40;79.30
3994;DHT22;2011;48.238;13.948;2023-05-10T00:35:41;13.40;79.10
3994;DHT22;2011;48.238;13.948;2023-05-10T00:38:08;13.40;79.00
3994;DHT22;2011;48.238;13.948;2023-05-10T00:40:36;13.40;79.10
3994;DHT22;2011;48.238;13.948;2023-05-10T00:43:05;13.40;79.30
3994;DHT22;2011;48.238;13.948;2023-05-10T00:45:32;13.40;79.50
3994;DHT22;2011;48.238;13.948;2023-05-10T00:48:01;13.30;79.60
3994;DHT22;2011;48.238;13.948;2023-05-10T00:50:29;13.30;79.70
3994;DHT22;2011;48.238;13.948;2023-05-10T00:52:57;13.30;80.00
3994;DHT22;2011;48.238;13.948;2023-05-10T00:55:24;13.30;80.20
3994;DHT22;2011;48.238;13.948;2023-05-10T00:57:52;13.20;80.00
3994;DHT22;2011;48.238;13.948;2023-05-10T01:00:21;13.20;80.20
3994;DHT22;2011;48.238;13.948;2023-05-10T01:02:48;13.20;80.40
3994;DHT22;2011;48.238;13.948;2023-05-10T01:05:15;13.20;80.60
3994;DHT22;2011;48.238;13.948;2023-05-10T01:07:42;13.20;80.40
3994;DHT22;2011;48.238;13.948;2023-05-10T01:10:10;13.20;80.30
3994;DHT22;2011;48.238;13.948;2023-05-10T01:12:39;13.10;80.50
3994;DHT22;2011;48.238;13.948;2023-05-10T01:15:08;13.10;80.70
3994;DHT22;2011;48.238;13.948;2023-05-10T01:17:39;13.10;80.80
3994;DHT22;2011;48.238;13.948;2023-05-10T01:20:08;13.10;81.00
3994;DHT22;2011;48.238;13.948;2023-05-10T01:25:37;13.10;80.90
3994;DHT22;2011;48.238;13.948;2023-05-10T01:28:21;13.10;81.10
3994;DHT22;2011;48.238;13.948;2023-05-10T01:31:21;13.10;81.20
3994;DHT22;2011;48.238;13.948;2023-05-10T01:33:55;13.00;81.30
3994;DHT22;2011;48.238;13.948;2023-05-10T01:36:29;13.00;81.60
3994;DHT22;2011;48.238;13.948;2023-05-10T01:39:01;12.90;81.50
3994;DHT22;2011;48.238;13.948;2023-05-10T01:41:36;12.90;81.80
3994;DHT22;2011;48.238;13.948;2023-05-10T01:44:11;12.90;82.00
3994;DHT22;2011;48.238;13.948;2023-05-10T01:46:40;12.90;81.90
3994;DHT22;2011;48.238;13.948;2023-05-10T01:49:12;12.80;82.50
3994;DHT22;2011;48.238;13.948;2023-05-10T01:51:45;12.70;82.90
3994;DHT22;2011;48.238;13.948;2023-05-10T01:54:15;12.60;83.00
3994;DHT22;2011;48.238;13.948;2023-05-10T01:56:45;12.60;83.20
3994;DHT22;2011;48.238;13.948;2023-05-10T01:59:17;12.50;83.60
3994;DHT22;2011;48.238;13.948;2023-05-10T02:01:45;12.50;84.10
3994;DHT22;2011;48.238;13.948;2023-05-10T02:04:17;12.40;84.40
3994;DHT22;2011;48.238;13.948;2023-05-10T02:06:45;12.40;85.00
3994;DHT22;2011;48.238;13.948;2023-05-10T02:09:14;12.30;85.20
3994;DHT22;2011;48.238;13.948;2023-05-10T02:11:43;12.30;85.70
3994;DHT22;2011;48.238;13.948;2023-05-10T02:14:11;12.20;85.70
3994;DHT22;2011;48.238;13.948;2023-05-10T02:16:39;12.30;86.00
3994;DHT22;2011;48.238;13.948;2023-05-10T02:19:07;12.30;86.20
3994;DHT22;2011;48.238;13.948;2023-05-10T02:21:37;12.30;86.70
3994;DHT22;2011;48.238;13.948;2023-05-10T02:24:06;12.30;87.20
3994;DHT22;2011;48.238;13.948;2023-05-10T02:26:35;12.30;87.20
3994;DHT22;2011;48.238;13.948;2023-05-10T02:29:03;12.30;88.40
3994;DHT22;2011;48.238;13.948;2023-05-10T02:31:32;12.30;88.70
3994;DHT22;2011;48.238;13.948;2023-05-10T02:34:00;12.30;89.10
3994;DHT22;2011;48.238;13.948;2023-05-10T02:36:28;12.30;89.30
3994;DHT22;2011;48.238;13.948;2023-05-10T02:38:59;12.20;90.20
3994;DHT22;2011;48.238;13.948;2023-05-10T02:41:27;12.20;90.80
3994;DHT22;2011;48.238;13.948;2023-05-10T02:43:57;12.10;90.80
3994;DHT22;2011;48.238;13.948;2023-05-10T02:46:25;12.00;90.80
3994;DHT22;2011;48.238;13.948;2023-05-10T02:48:53;12.00;90.60
3994;DHT22;2011;48.238;13.948;2023-05-10T02:51:20;12.00;90.90
3994;DHT22;2011;48.238;13.948;2023-05-10T02:53:53;12.10;91.20
3994;DHT22;2011;48.238;13.948;2023-05-10T02:56:27;12.10;91.20
3994;DHT22;2011;48.238;13.948;2023-05-10T02:58:55;12.20;91.50
3994;DHT22;2011;48.238;13.948;2023-05-10T03:01:22;12.20;91.50
3994;DHT22;2011;48.238;13.948;2023-05-10T03:03:49;12.20;92.20
3994;DHT22;2011;48.238;13.948;2023-05-10T03:06:16;12.20;92.10
3994;DHT22;2011;48.238;13.948;2023-05-10T03:08:43;12.20;92.30
3994;DHT22;2011;48.238;13.948;2023-05-10T03:11:26;12.20;92.20
3994;DHT22;2011;48.238;13.948;2023-05-10T03:14:07;12.20;93.00
3994;DHT22;2011;48.238;13.948;2023-05-10T03:16:41;12.20;93.20
3994;DHT22;2011;48.238;13.948;2023-05-10T03:19:14;12.20;93.40
3994;DHT22;2011;48.238;13.948;2023-05-10T03:21:47;12.20;94.10
3994;DHT22;2011;48.238;13.948;2023-05-10T03:24:16;12.20;93.90
3994;DHT22;2011;48.238;13.948;2023-05-10T03:26:47;12.30;93.80
3994;DHT22;2011;48.238;13.948;2023-05-10T03:29:15;12.30;94.00
3994;DHT22;2011;48.238;13.948;2023-05-10T03:31:42;12.30;94.50
3994;DHT22;2011;48.238;13.948;2023-05-10T03:34:09;12.30;94.70
3994;DHT22;2011;48.238;13.948;2023-05-10T03:36:36;12.40;94.80
3994;DHT22;2011;48.238;13.948;2023-05-10T03:39:03;12.40;95.00
3994;DHT22;2011;48.238;13.948;2023-05-10T03:41:30;12.40;94.90
3994;DHT22;2011;48.238;13.948;2023-05-10T03:43:58;12.40;95.20
3994;DHT22;2011;48.238;13.948;2023-05-10T03:46:25;12.40;95.80
3994;DHT22;2011;48.238;13.948;2023-05-10T03:48:52;12.40;95.40
3994;DHT22;2011;48.238;13.948;2023-05-10T03:51:19;12.40;95.60
3994;DHT22;2011;48.238;13.948;2023-05-10T03:53:47;12.40;96.20
3994;DHT22;2011;48.238;13.948;2023-05-10T03:56:14;12.40;96.10
3994;DHT22;2011;48.238;13.948;2023-05-10T03:58:41;12.40;96.00
3994;DHT22;2011;48.238;13.948;2023-05-10T04:01:10;12.40;95.90
3994;DHT22;2011;48.238;13.948;2023-05-10T04:03:37;12.40;96.00
3994;DHT22;2011;48.238;13.948;2023-05-10T04:06:04;12.40;95.70
3994;DHT22;2011;48.238;13.948;2023-05-10T04:08:33;12.50;95.30
3994;DHT22;2011;48.238;13.948;2023-05-10T04:11:07;12.50;95.30
3994;DHT22;2011;48.238;13.948;2023-05-10T04:13:34;12.50;95.30
3994;DHT22;2011;48.238;13.948;2023-05-10T04:16:01;12.50;95.30
3994;DHT22;2011;48.238;13.948;2023-05-10T04:18:29;12.50;95.90
3994;DHT22;2011;48.238;13.948;2023-05-10T04:20:56;12.60;96.60
3994;DHT22;2011;48.238;13.948;2023-05-10T04:23:23;12.60;97.10
3994;DHT22;2011;48.238;13.948;2023-05-10T04:25:50;12.60;97.20
3994;DHT22;2011;48.238;13.948;2023-05-10T04:28:18;12.60;97.50
3994;DHT22;2011;48.238;13.948;2023-05-10T04:30:45;12.60;97.50
3994;DHT22;2011;48.238;13.948;2023-05-10T04:33:12;12.70;97.70
3994;DHT22;2011;48.238;13.948;2023-05-10T04:35:41;12.60;97.80
3994;DHT22;2011;48.238;13.948;2023-05-10T04:38:08;12.70;97.40
3994;DHT22;2011;48.238;13.948;2023-05-10T04:40:35;12.70;97.90
3994;DHT22;2011;48.238;13.948;2023-05-10T04:43:02;12.70;97.80
3994;DHT22;2011;48.238;13.948;2023-05-10T04:45:29;12.70;98.00
3994;DHT22;2011;48.238;13.948;2023-05-10T04:47:56;12.70;98.30
3994;DHT22;2011;48.238;13.948;2023-05-10T04:50:23;12.70;98.40
3994;DHT22;2011;48.238;13.948;2023-05-10T04:52:51;12.80;98.40
3994;DHT22;2011;48.238;13.948;2023-05-10T04:55:18;12.80;98.60
3994;DHT22;2011;48.238;13.948;2023-05-10T04:57:46;12.80;99.00
3994;DHT22;2011;48.238;13.948;2023-05-10T05:00:13;12.90;99.30
3994;DHT22;2011;48.238;13.948;2023-05-10T05:02:42;12.90;99.10
3994;DHT22;2011;48.238;13.948;2023-05-10T05:05:10;12.90;99.30
3994;DHT22;2011;48.238;13.948;2023-05-10T05:07:38;12.90;99.30
3994;DHT22;2011;48.238;13.948;2023-05-10T05:10:08;12.90;99.60
3994;DHT22;2011;48.238;13.948;2023-05-10T05:12:35;13.00;99.90
3994;DHT22;2011;48.238;13.948;2023-05-10T05:15:02;13.00;99.90
3994;DHT22;2011;48.238;13.948;2023-05-10T05:17:30;13.00;99.90
3994;DHT22;2011;48.238;13.948;2023-05-10T05:19:57;13.10;99.90
3994;DHT22;2011;48.238;13.948;2023-05-10T05:22:24;13.10;99.90
3994;DHT22;2011;48.238;13.948;2023-05-10T05:24:53;13.10;99.90
3994;DHT22;2011;48.238;13.948;2023-05-10T05:27:22;13.10;99.80
3994;DHT22;2011;48.238;13.948;2023-05-10T05:29:50;13.10;99.50
3994;DHT22;2011;48.238;13.948;2023-05-10T05:32:17;13.10;98.70
3994;DHT22;2011;48.238;13.948;2023-05-10T05:34:44;13.20;98.90
3994;DHT22;2011;48.238;13.948;2023-05-10T05:37:13;13.20;99.10
3994;DHT22;2011;48.238;13.948;2023-05-10T05:39:41;13.30;99.00
3994;DHT22;2011;48.238;13.948;2023-05-10T05:42:09;13.40;99.90
3994;DHT22;2011;48.238;13.948;2023-05-10T05:44:37;13.50;99.70
3994;DHT22;2011;48.238;13.948;2023-05-10T05:47:04;13.50;99.40
3994;DHT22;2011;48.238;13.948;2023-05-10T05:49:32;13.50;99.30
3994;DHT22;2011;48.238;13.948;2023-05-10T05:51:59;13.60;99.20
3994;DHT22;2011;48.238;13.948;2023-05-10T05:54:27;13.60;99.50
3994;DHT22;2011;48.238;13.948;2023-05-10T05:56:54;13.60;99.30
3994;DHT22;2011;48.238;13.948;2023-05-10T05:59:22;13.60;99.20
3994;DHT22;2011;48.238;13.948;2023-05-10T06:01:50;13.60;99.30
3994;DHT22;2011;48.238;13.948;2023-05-10T06:04:18;13.60;98.80
3994;DHT22;2011;48.238;13.948;2023-05-10T06:06:45;13.70;98.90
3994;DHT22;2011;48.238;13.948;2023-05-10T06:09:12;13.70;98.80
3994;DHT22;2011;48.238;13.948;2023-05-10T06:11:39;13.70;98.00
3994;DHT22;2011;48.238;13.948;2023-05-10T06:14:06;13.70;97.90
3994;DHT22;2011;48.238;13.948;2023-05-10T06:16:33;13.80;97.60
3994;DHT22;2011;48.238;13.948;2023-05-10T06:19:02;13.80;97.60
3994;DHT22;2011;48.238;13.948;2023-05-10T06:21:29;13.80;97.40
3994;DHT22;2011;48.238;13.948;2023-05-10T06:23:56;13.80;97.50
3994;DHT22;2011;48.238;13.948;2023-05-10T06:26:23;13.80;97.70
3994;DHT22;2011;48.238;13.948;2023-05-10T06:28:50;13.80;97.10
3994;DHT22;2011;48.238;13.948;2023-05-10T06:31:17;13.90;96.90
3994;DHT22;2011;48.238;13.948;2023-05-10T06:33:44;13.90;97.00
3994;DHT22;2011;48.238;13.948;2023-05-10T06:36:12;13.90;97.50
3994;DHT22;2011;48.238;13.948;2023-05-10T06:38:39;14.00;97.80
3994;DHT22;2011;48.238;13.948;2023-05-10T06:41:06;14.00;98.10
3994;DHT22;2011;48.238;13.948;2023-05-10T06:43:33;14.00;98.10
3994;DHT22;2011;48.238;13.948;2023-05-10T06:46:00;14.00;97.90
3994;DHT22;2011;48.238;13.948;2023-05-10T06:48:27;14.10;97.70
3994;DHT22;2011;48.238;13.948;2023-05-10T06:50:54;14.10;97.90
3994;DHT22;2011;48.238;13.948;2023-05-10T06:53:22;14.20;97.90
3994;DHT22;2011;48.238;13.948;2023-05-10T06:55:49;14.30;97.80
3994;DHT22;2011;48.238;13.948;2023-05-10T06:58:16;14.40;97.20
3994;DHT22;2011;48.238;13.948;2023-05-10T07:00:43;14.40;97.40
3994;DHT22;2011;48.238;13.948;2023-05-10T07:03:10;14.50;97.70
3994;DHT22;2011;48.238;13.948;2023-05-10T07:05:37;14.50;97.80
3994;DHT22;2011;48.238;13.948;2023-05-10T07:08:04;14.50;97.60
3994;DHT22;2011;48.238;13.948;2023-05-10T07:10:32;14.60;97.60
3994;DHT22;2011;48.238;13.948;2023-05-10T07:12:59;14.60;97.50
3994;DHT22;2011;48.238;13.948;2023-05-10T07:15:27;14.70;97.20
3994;DHT22;2011;48.238;13.948;2023-05-10T07:17:54;14.80;97.00
3994;DHT22;2011;48.238;13.948;2023-05-10T07:20:21;14.90;97.40
3994;DHT22;2011;48.238;13.948;2023-05-10T07:22:48;14.80;96.90
3994;DHT22;2011;48.238;13.948;2023-05-10T07:25:15;14.80;96.80
3994;DHT22;2011;48.238;13.948;2023-05-10T07:27:43;14.80;96.50
3994;DHT22;2011;48.238;13.948;2023-05-10T07:30:11;14.80;96.60
3994;DHT22;2011;48.238;13.948;2023-05-10T07:32:38;14.90;96.70
3994;DHT22;2011;48.238;13.948;2023-05-10T07:35:08;14.90;96.60
3994;DHT22;2011;48.238;13.948;2023-05-10T07:37:35;14.90;96.80
3994;DHT22;2011;48.238;13.948;2023-05-10T07:40:01;14.90;96.60
3994;DHT22;2011;48.238;13.948;2023-05-10T07:42:29;14.90;96.70
3994;DHT22;2011;48.238;13.948;2023-05-10T07:44:57;15.00;96.50
3994;DHT22;2011;48.238;13.948;2023-05-10T07:47:24;15.10;96.40
3994;DHT22;2011;48.238;13.948;2023-05-10T07:49:51;15.20;96.80
3994;DHT22;2011;48.238;13.948;2023-05-10T07:52:18;15.30;96.70
3994;DHT22;2011;48.238;13.948;2023-05-10T07:54:45;15.40;96.20
3994;DHT22;2011;48.238;13.948;2023-05-10T07:57:12;15.50;96.20
3994;DHT22;2011;48.238;13.948;2023-05-10T07:59:43;15.60;95.90
3994;DHT22;2011;48.238;13.948;2023-05-10T08:02:11;15.60;95.70
3994;DHT22;2011;48.238;13.948;2023-05-10T08:04:38;15.60;95.40
3994;DHT22;2011;48.238;13.948;2023-05-10T08:07:05;15.80;95.40
3994;DHT22;2011;48.238;13.948;2023-05-10T08:09:32;15.90;95.50
3994;DHT22;2011;48.238;13.948;2023-05-10T08:12:00;16.10;95.30
3994;DHT22;2011;48.238;13.948;2023-05-10T08:14:28;16.20;95.00
3994;DHT22;2011;48.238;13.948;2023-05-10T08:16:55;16.30;94.70
3994;DHT22;2011;48.238;13.948;2023-05-10T08:19:24;16.30;94.70
3994;DHT22;2011;48.238;13.948;2023-05-10T08:21:51;16.40;94.60
3994;DHT22;2011;48.238;13.948;2023-05-10T08:24:19;16.50;94.30
3994;DHT22;2011;48.238;13.948;2023-05-10T08:26:46;16.60;94.30
3994;DHT22;2011;48.238;13.948;2023-05-10T08:29:13;16.70;94.10
3994;DHT22;2011;48.238;13.948;2023-05-10T08:31:40;16.80;94.80
3994;DHT22;2011;48.238;13.948;2023-05-10T08:34:07;16.80;94.50
3994;DHT22;2011;48.238;13.948;2023-05-10T08:36:35;16.90;94.50
3994;DHT22;2011;48.238;13.948;2023-05-10T08:39:02;17.00;94.30
3994;DHT22;2011;48.238;13.948;2023-05-10T08:41:30;17.10;95.00
3994;DHT22;2011;48.238;13.948;2023-05-10T08:43:59;17.20;95.70
3994;DHT22;2011;48.238;13.948;2023-05-10T08:46:31;17.20;96.20
3994;DHT22;2011;48.238;13.948;2023-05-10T08:49:02;17.30;96.20
3994;DHT22;2011;48.238;13.948;2023-05-10T08:51:37;17.30;96.10
3994;DHT22;2011;48.238;13.948;2023-05-10T08:54:07;17.30;96.40
3994;DHT22;2011;48.238;13.948;2023-05-10T08:56:34;17.40;96.80
3994;DHT22;2011;48.238;13.948;2023-05-10T08:59:01;17.40;97.20
3994;DHT22;2011;48.238;13.948;2023-05-10T09:01:28;17.40;97.40
3994;DHT22;2011;48.238;13.948;2023-05-10T09:03:58;17.40;97.20
3994;DHT22;2011;48.238;13.948;2023-05-10T09:06:25;17.30;97.40
3994;DHT22;2011;48.238;13.948;2023-05-10T09:08:54;17.30;97.60
3994;DHT22;2011;48.238;13.948;2023-05-10T09:11:21;17.30;97.80
3994;DHT22;2011;48.238;13.948;2023-05-10T09:13:50;17.30;97.80
3994;DHT22;2011;48.238;13.948;2023-05-10T09:16:19;17.20;98.10
3994;DHT22;2011;48.238;13.948;2023-05-10T09:18:46;17.10;97.80
3994;DHT22;2011;48.238;13.948;2023-05-10T09:21:13;17.10;98.30
3994;DHT22;2011;48.238;13.948;2023-05-10T09:23:42;17.10;99.10
3994;DHT22;2011;48.238;13.948;2023-05-10T09:26:11;17.10;99.30
3994;DHT22;2011;48.238;13.948;2023-05-10T09:28:50;17.10;99.90
3994;DHT22;2011;48.238;13.948;2023-05-10T09:31:18;17.10;99.90
3994;DHT22;2011;48.238;13.948;2023-05-10T09:33:46;17.10;99.90
3994;DHT22;2011;48.238;13.948;2023-05-10T09:36:13;17.10;99.90
3994;DHT22;2011;48.238;13.948;2023-05-10T09:38:47;17.00;99.90
3994;DHT22;2011;48.238;13.948;2023-05-10T09:41:20;16.90;99.90
3994;DHT22;2011;48.238;13.948;2023-05-10T09:43:47;16.80;99.90
3994;DHT22;2011;48.238;13.948;2023-05-10T09:46:15;16.80;99.90
3994;DHT22;2011;48.238;13.948;2023-05-10T09:48:43;16.80;99.90
3994;DHT22;2011;48.238;13.948;2023-05-10T09:51:10;16.70;99.90
3994;DHT22;2011;48.238;13.948;2023-05-10T09:53:37;16.70;99.90
3994;DHT22;2011;48.238;13.948;2023-05-10T09:56:04;16.60;99.90
3994;DHT22;2011;48.238;13.948;2023-05-10T09:58:36;16.60;99.90
3994;DHT22;2011;48.238;13.948;2023-05-10T10:01:04;16.70;99.90
3994;DHT22;2011;48.238;13.948;2023-05-10T10:03:41;16.60;99.90
3994;DHT22;2011;48.238;13.948;2023-05-10T10:06:08;16.50;99.90
3994;DHT22;2011;48.238;13.948;2023-05-10T10:08:36;16.40;99.90
3994;DHT22;2011;48.238;13.948;2023-05-10T10:11:03;16.40;99.90
3994;DHT22;2011;48.238;13.948;2023-05-10T10:13:32;16.20;99.90
3994;DHT22;2011;48.238;13.948;2023-05-10T10:15:59;16.20;99.90
3994;DHT22;2011;48.238;13.948;2023-05-10T10:18:26;16.10;99.90
3994;DHT22;2011;48.238;13.948;2023-05-10T10:20:54;16.10;99.90
3994;DHT22;2011;48.238;13.948;2023-05-10T10:23:22;16.10;99.90
3994;DHT22;2011;48.238;13.948;2023-05-10T10:25:49;16.10;99.90
3994;DHT22;2011;48.238;13.948;2023-05-10T10:28:24;16.10;99.90
3994;DHT22;2011;48.238;13.948;2023-05-10T10:30:55;16.00;99.90
3994;DHT22;2011;48.238;13.948;2023-05-10T10:33:36;16.00;99.90
3994;DHT22;2011;48.238;13.948;2023-05-10T10:36:06;15.90;99.90
3994;DHT22;2011;48.238;13.948;2023-05-10T10:38:37;15.90;99.90
3994;DHT22;2011;48.238;13.948;2023-05-10T10:41:10;15.90;99.90
3994;DHT22;2011;48.238;13.948;2023-05-10T10:43:37;15.80;99.90
3994;DHT22;2011;48.238;13.948;2023-05-10T10:46:13;15.70;99.90
3994;DHT22;2011;48.238;13.948;2023-05-10T10:48:40;15.80;99.90
3994;DHT22;2011;48.238;13.948;2023-05-10T10:51:08;15.80;99.90
3994;DHT22;2011;48.238;13.948;2023-05-10T10:53:37;15.70;99.90
3994;DHT22;2011;48.238;13.948;2023-05-10T10:56:08;15.80;99.90
3994;DHT22;2011;48.238;13.948;2023-05-10T10:58:37;15.80;99.90
3994;DHT22;2011;48.238;13.948;2023-05-10T11:01:16;15.80;99.90
3994;DHT22;2011;48.238;13.948;2023-05-10T11:04:17;15.80;99.90
3994;DHT22;2011;48.238;13.948;2023-05-10T11:06:45;15.80;99.90
3994;DHT22;2011;48.238;13.948;2023-05-10T11:09:12;15.80;99.90
3994;DHT22;2011;48.238;13.948;2023-05-10T11:11:50;15.80;99.90
3994;DHT22;2011;48.238;13.948;2023-05-10T11:14:20;15.90;99.90
3994;DHT22;2011;48.238;13.948;2023-05-10T11:16:49;15.90;99.90
3994;DHT22;2011;48.238;13.948;2023-05-10T11:19:17;15.90;99.90
3994;DHT22;2011;48.238;13.948;2023-05-10T11:21:46;15.90;99.90
3994;DHT22;2011;48.238;13.948;2023-05-10T11:24:14;15.90;99.90
3994;DHT22;2011;48.238;13.948;2023-05-10T11:26:42;15.90;99.90
3994;DHT22;2011;48.238;13.948;2023-05-10T11:29:09;15.90;99.90
3994;DHT22;2011;48.238;13.948;2023-05-10T11:31:42;15.90;99.90
3994;DHT22;2011;48.238;13.948;2023-05-10T11:34:11;15.90;99.90
3994;DHT22;2011;48.238;13.948;2023-05-10T11:36:42;16.00;99.90
3994;DHT22;2011;48.238;13.948;2023-05-10T11:39:09;16.00;99.90
3994;DHT22;2011;48.238;13.948;2023-05-10T11:41:37;15.90;99.90
3994;DHT22;2011;48.238;13.948;2023-05-10T11:44:04;15.90;99.90
3994;DHT22;2011;48.238;13.948;2023-05-10T11:46:31;15.90;99.90
3994;DHT22;2011;48.238;13.948;2023-05-10T11:48:59;15.90;99.90
3994;DHT22;2011;48.238;13.948;2023-05-10T11:51:33;15.80;99.90
3994;DHT22;2011;48.238;13.948;2023-05-10T11:54:01;15.80;99.90
3994;DHT22;2011;48.238;13.948;2023-05-10T11:56:32;15.90;99.90
3994;DHT22;2011;48.238;13.948;2023-05-10T11:59:00;16.00;99.90
3994;DHT22;2011;48.238;13.948;2023-05-10T12:01:28;16.00;99.90
3994;DHT22;2011;48.238;13.948;2023-05-10T12:03:57;16.00;99.90
3994;DHT22;2011;48.238;13.948;2023-05-10T12:06:26;16.00;99.90
3994;DHT22;2011;48.238;13.948;2023-05-10T12:08:55;16.00;99.90
3994;DHT22;2011;48.238;13.948;2023-05-10T12:11:24;16.00;99.90
3994;DHT22;2011;48.238;13.948;2023-05-10T12:13:53;15.90;99.90
3994;DHT22;2011;48.238;13.948;2023-05-10T12:16:21;15.90;99.90
3994;DHT22;2011;48.238;13.948;2023-05-10T12:18:49;16.00;99.90
3994;DHT22;2011;48.238;13.948;2023-05-10T12:21:16;16.10;99.90
3994;DHT22;2011;48.238;13.948;2023-05-10T12:23:45;16.20;99.90
3994;DHT22;2011;48.238;13.948;2023-05-10T12:26:14;16.30;99.90
3994;DHT22;2011;48.238;13.948;2023-05-10T12:28:41;16.50;99.90
3994;DHT22;2011;48.238;13.948;2023-05-10T12:31:08;16.70;99.90
3994;DHT22;2011;48.238;13.948;2023-05-10T12:33:37;16.80;99.90
3994;DHT22;2011;48.238;13.948;2023-05-10T12:36:08;16.70;99.90
3994;DHT22;2011;48.238;13.948;2023-05-10T12:38:36;16.50;99.90
3994;DHT22;2011;48.238;13.948;2023-05-10T12:41:05;16.50;99.90
3994;DHT22;2011;48.238;13.948;2023-05-10T12:43:34;16.30;99.90
3994;DHT22;2011;48.238;13.948;2023-05-10T12:46:05;16.30;99.90
3994;DHT22;2011;48.238;13.948;2023-05-10T12:48:32;16.40;99.90
3994;DHT22;2011;48.238;13.948;2023-05-10T12:51:00;16.50;99.90
3994;DHT22;2011;48.238;13.948;2023-05-10T12:53:27;16.60;99.90
3994;DHT22;2011;48.238;13.948;2023-05-10T12:55:54;16.60;99.90
3994;DHT22;2011;48.238;13.948;2023-05-10T12:58:21;16.60;99.90
3994;DHT22;2011;48.238;13.948;2023-05-10T13:00:50;16.60;99.90
3994;DHT22;2011;48.238;13.948;2023-05-10T13:03:18;16.60;99.90
3994;DHT22;2011;48.238;13.948;2023-05-10T13:05:45;16.50;99.90
3994;DHT22;2011;48.238;13.948;2023-05-10T13:08:12;16.50;99.90
3994;DHT22;2011;48.238;13.948;2023-05-10T13:10:39;16.50;99.90
3994;DHT22;2011;48.238;13.948;2023-05-10T13:13:06;16.50;99.90
3994;DHT22;2011;48.238;13.948;2023-05-10T13:15:34;16.50;99.90
3994;DHT22;2011;48.238;13.948;2023-05-10T13:18:02;16.60;99.90
3994;DHT22;2011;48.238;13.948;2023-05-10T13:20:29;16.70;99.90
3994;DHT22;2011;48.238;13.948;2023-05-10T13:22:56;16.60;99.90
3994;DHT22;2011;48.238;13.948;2023-05-10T13:25:23;16.50;99.90
3994;DHT22;2011;48.238;13.948;2023-05-10T13:27:50;16.40;99.90
3994;DHT22;2011;48.238;13.948;2023-05-10T13:30:17;16.30;99.90
3994;DHT22;2011;48.238;13.948;2023-05-10T13:32:43;16.20;99.90
3994;DHT22;2011;48.238;13.948;2023-05-10T13:35:12;16.20;99.90
3994;DHT22;2011;48.238;13.948;2023-05-10T13:37:39;16.10;99.90
3994;DHT22;2011;48.238;13.948;2023-05-10T13:40:07;16.00;99.90
3994;DHT22;2011;48.238;13.948;2023-05-10T13:42:34;16.20;99.90
3994;DHT22;2011;48.238;13.948;2023-05-10T13:45:01;16.30;99.90
3994;DHT22;2011;48.238;13.948;2023-05-10T13:47:28;16.40;99.90
3994;DHT22;2011;48.238;13.948;2023-05-10T13:49:55;16.40;99.90
3994;DHT22;2011;48.238;13.948;2023-05-10T13:52:24;16.60;99.90
3994;DHT22;2011;48.238;13.948;2023-05-10T13:54:51;16.70;99.90
3994;DHT22;2011;48.238;13.948;2023-05-10T13:57:20;16.80;99.90
3994;DHT22;2011;48.238;13.948;2023-05-10T13:59:47;16.90;99.90
3994;DHT22;2011;48.238;13.948;2023-05-10T14:02:14;16.90;99.90
3994;DHT22;2011;48.238;13.948;2023-05-10T14:04:41;16.90;99.90
3994;DHT22;2011;48.238;13.948;2023-05-10T14:07:08;16.90;99.90
3994;DHT22;2011;48.238;13.948;2023-05-10T14:09:36;17.00;99.90
3994;DHT22;2011;48.238;13.948;2023-05-10T14:12:03;16.90;99.90
3994;DHT22;2011;48.238;13.948;2023-05-10T14:14:30;16.90;99.90
3994;DHT22;2011;48.238;13.948;2023-05-10T14:16:58;16.90;99.90
3994;DHT22;2011;48.238;13.948;2023-05-10T14:19:26;17.00;99.90
3994;DHT22;2011;48.238;13.948;2023-05-10T14:21:53;16.90;99.90
3994;DHT22;2011;48.238;13.948;2023-05-10T14:24:20;17.00;99.90
3994;DHT22;2011;48.238;13.948;2023-05-10T14:26:48;17.00;99.90
3994;DHT22;2011;48.238;13.948;2023-05-10T14:29:19;17.10;99.90
3994;DHT22;2011;48.238;13.948;2023-05-10T14:31:46;17.20;99.90
3994;DHT22;2011;48.238;13.948;2023-05-10T14:34:13;17.20;99.90
3994;DHT22;2011;48.238;13.948;2023-05-10T14:36:40;17.10;99.90
3994;DHT22;2011;48.238;13.948;2023-05-10T14:39:07;17.10;99.90
3994;DHT22;2011;48.238;13.948;2023-05-10T14:41:35;17.10;99.90
3994;DHT22;2011;48.238;13.948;2023-05-10T14:44:04;17.20;99.90
3994;DHT22;2011;48.238;13.948;2023-05-10T14:46:30;17.20;99.90
3994;DHT22;2011;48.238;13.948;2023-05-10T14:48:57;17.20;99.90
3994;DHT22;2011;48.238;13.948;2023-05-10T14:51:24;17.30;99.90
3994;DHT22;2011;48.238;13.948;2023-05-10T14:53:51;17.30;99.90
3994;DHT22;2011;48.238;13.948;2023-05-10T14:56:18;17.40;99.90
3994;DHT22;2011;48.238;13.948;2023-05-10T14:58:46;17.40;99.90
3994;DHT22;2011;48.238;13.948;2023-05-10T15:01:15;17.40;99.90
3994;DHT22;2011;48.238;13.948;2023-05-10T15:03:42;17.30;99.90
3994;DHT22;2011;48.238;13.948;2023-05-10T15:06:09;17.30;99.90
3994;DHT22;2011;48.238;13.948;2023-05-10T15:08:36;17.10;99.90
3994;DHT22;2011;48.238;13.948;2023-05-10T15:11:03;17.00;99.90
3994;DHT22;2011;48.238;13.948;2023-05-10T15:13:30;16.90;99.90
3994;DHT22;2011;48.238;13.948;2023-05-10T15:15:56;16.80;99.90
3994;DHT22;2011;48.238;13.948;2023-05-10T15:18:25;16.70;99.90
3994;DHT22;2011;48.238;13.948;2023-05-10T15:20:52;16.60;99.90
3994;DHT22;2011;48.238;13.948;2023-05-10T15:23:18;16.40;99.90
3994;DHT22;2011;48.238;13.948;2023-05-10T15:25:45;16.40;99.90
3994;DHT22;2011;48.238;13.948;2023-05-10T15:28:12;16.40;99.90
3994;DHT22;2011;48.238;13.948;2023-05-10T15:30:39;16.40;99.90
3994;DHT22;2011;48.238;13.948;2023-05-10T15:33:06;16.40;99.90
3994;DHT22;2011;48.238;13.948;2023-05-10T15:35:35;16.40;99.90
3994;DHT22;2011;48.238;13.948;2023-05-10T15:38:03;16.50;99.90
3994;DHT22;2011;48.238;13.948;2023-05-10T15:40:31;16.60;99.90
3994;DHT22;2011;48.238;13.948;2023-05-10T15:42:58;16.60;99.90
3994;DHT22;2011;48.238;13.948;2023-05-10T15:45:25;16.60;99.90
3994;DHT22;2011;48.238;13.948;2023-05-10T15:47:52;16.60;99.90
3994;DHT22;2011;48.238;13.948;2023-05-10T15:50:19;16.60;99.90
3994;DHT22;2011;48.238;13.948;2023-05-10T15:52:47;16.60;99.90
3994;DHT22;2011;48.238;13.948;2023-05-10T15:55:14;16.60;99.90